Time;durP1;ratioP1;P1;durP2;ratioP2;P2;SDS_P1;SDS_P2;PMS_P1;PMS_P2;Temp;Humidity;BMP_temperature;BMP_pressure;BME280_temperature;BME280_humidity;BME280_pressure;Samples;Min_cycle;Max_cycle;Signal;HPM_P1;HPM_P2
2022/02/14 00:01:25;;;;;;;5.15;4.65;;;4.60;86.50;;;;;;5096662;28;20203;-80
2022/02/14 00:03:51;;;;;;;5.68;3.85;;;4.60;85.90;;;;;;5093854;28;20201;-80
2022/02/14 00:06:19;;;;;;;6.25;5.65;;;4.70;86.20;;;;;;5098688;28;20212;-82
2022/02/14 00:08:47;;;;;;;5.40;4.90;;;4.80;86.00;;;;;;5099323;28;20225;-82
2022/02/14 00:11:14;;;;;;;6.18;4.90;;;4.70;85.80;;;;;;5097737;28;20201;-82
2022/02/14 00:13:40;;;;;;;4.70;4.13;;;4.70;86.00;;;;;;5095244;28;20189;-80
2022/02/14 00:16:07;;;;;;;5.90;5.40;;;4.60;86.10;;;;;;5095022;28;20232;-80
2022/02/14 00:18:34;;;;;;;4.22;3.83;;;4.60;86.30;;;;;;5094330;28;20208;-80
2022/02/14 00:21:01;;;;;;;5.07;3.88;;;4.70;85.90;;;;;;5094566;28;20205;-80
2022/02/14 00:23:29;;;;;;;5.13;4.72;;;4.70;85.80;;;;;;5090415;28;20204;-79
2022/02/14 00:25:55;;;;;;;4.45;3.95;;;4.70;85.80;;;;;;5088711;28;20235;-79
2022/02/14 00:28:22;;;;;;;4.88;4.07;;;4.80;85.20;;;;;;5087896;28;20231;-79
2022/02/14 00:30:49;;;;;;;4.18;3.70;;;4.80;84.60;;;;;;5087423;28;20205;-79
2022/02/14 00:33:15;;;;;;;3.83;3.42;;;4.80;84.40;;;;;;5087496;28;20211;-79
2022/02/14 00:35:42;;;;;;;4.85;4.38;;;4.80;84.20;;;;;;5087604;28;20221;-79
2022/02/14 00:38:11;;;;;;;4.22;3.88;;;4.80;84.20;;;;;;5087693;28;20201;-79
2022/02/14 00:40:39;;;;;;;4.95;3.97;;;4.90;84.20;;;;;;5087481;28;20285;-79
2022/02/14 00:43:06;;;;;;;5.50;4.97;;;4.90;83.90;;;;;;5087311;28;20209;-79
2022/02/14 00:45:33;;;;;;;4.53;4.20;;;5.00;83.70;;;;;;5089627;28;20224;-81
2022/02/14 00:48:01;;;;;;;3.97;3.60;;;5.00;83.50;;;;;;5094986;28;20208;-80
2022/02/14 00:50:28;;;;;;;5.35;3.85;;;4.90;83.20;;;;;;5096706;28;20252;-79
2022/02/14 00:52:55;;;;;;;5.43;3.60;;;5.00;82.90;;;;;;5097350;28;20197;-79
2022/02/14 00:55:21;;;;;;;4.35;3.95;;;5.00;82.20;;;;;;5097241;28;20216;-79
2022/02/14 00:57:49;;;;;;;5.43;4.35;;;5.10;82.00;;;;;;5097089;28;20188;-79
2022/02/14 01:00:18;;;;;;;5.95;4.00;;;5.20;81.60;;;;;;5096581;28;20213;-80
2022/02/14 01:02:45;;;;;;;4.40;4.00;;;5.20;81.20;;;;;;5097016;28;20212;-79
2022/02/14 01:05:12;;;;;;;3.30;2.88;;;5.30;80.60;;;;;;5094031;28;20225;-80
2022/02/14 01:07:40;;;;;;;7.07;4.32;;;5.40;80.00;;;;;;5087852;28;20238;-80
2022/02/14 01:10:09;;;;;;;4.88;3.70;;;5.40;79.70;;;;;;5086807;28;20215;-80
2022/02/14 01:12:36;;;;;;;5.30;3.30;;;5.50;79.40;;;;;;5086371;28;20224;-80
2022/02/14 01:15:05;;;;;;;3.92;2.95;;;5.40;79.40;;;;;;5087028;28;20201;-80
2022/02/14 01:17:33;;;;;;;3.72;3.42;;;5.50;79.40;;;;;;5084312;28;20224;-80
2022/02/14 01:19:59;;;;;;;4.47;2.97;;;5.50;78.90;;;;;;5086546;28;20205;-80
2022/02/14 01:22:26;;;;;;;5.30;4.07;;;5.50;78.50;;;;;;5087151;28;20208;-80
2022/02/14 01:24:53;;;;;;;4.50;3.45;;;5.60;78.40;;;;;;5086742;28;20205;-80
2022/02/14 01:27:20;;;;;;;4.20;3.50;;;5.60;77.90;;;;;;5082215;28;20223;-81
2022/02/14 01:29:46;;;;;;;4.95;3.65;;;5.60;77.50;;;;;;5077593;28;20228;-81
2022/02/14 01:32:17;;;;;;;5.40;3.55;;;5.60;76.70;;;;;;5077237;28;20326;-81
2022/02/14 01:34:44;;;;;;;3.00;2.70;;;5.60;76.70;;;;;;5077547;28;20205;-83
2022/02/14 01:37:11;;;;;;;8.48;4.57;;;5.70;76.70;;;;;;5078402;28;20217;-83
2022/02/14 01:39:38;;;;;;;5.15;3.08;;;5.70;76.80;;;;;;5078090;28;20216;-81
2022/02/14 01:42:05;;;;;;;3.80;3.50;;;5.70;76.70;;;;;;5080182;28;20200;-81
2022/02/14 01:44:36;;;;;;;2.80;2.60;;;5.70;76.40;;;;;;5079910;28;20220;-84
2022/02/14 01:47:04;;;;;;;3.55;3.28;;;5.70;75.00;;;;;;5081332;28;20239;-83
2022/02/14 01:49:32;;;;;;;3.55;2.47;;;5.70;75.00;;;;;;5081561;28;20232;-83
2022/02/14 01:52:00;;;;;;;3.03;2.63;;;5.70;74.80;;;;;;5080556;28;20287;-84
2022/02/14 01:54:27;;;;;;;2.90;2.70;;;5.70;74.40;;;;;;5080999;28;20232;-83
2022/02/14 01:56:54;;;;;;;5.03;3.10;;;5.80;74.50;;;;;;5080434;28;20216;-84
2022/02/14 01:59:21;;;;;;;4.38;3.30;;;5.70;74.30;;;;;;5077689;28;20205;-80
2022/02/14 02:01:48;;;;;;;3.30;3.00;;;5.70;73.70;;;;;;5076347;28;20211;-81
2022/02/14 02:04:15;;;;;;;4.40;3.05;;;5.80;73.60;;;;;;5076676;28;20205;-81
2022/02/14 02:06:43;;;;;;;4.05;2.55;;;5.80;73.20;;;;;;5076001;28;20221;-81
2022/02/14 02:09:10;;;;;;;3.15;2.85;;;5.90;72.50;;;;;;5076290;28;20229;-81
2022/02/14 02:14:22;;;;;;;3.28;2.55;;;5.90;72.80;;;;;;5076898;28;20192;-82
2022/02/14 02:16:49;;;;;;;2.67;2.47;;;6.00;71.90;;;;;;5077238;28;20259;-81
2022/02/14 02:19:16;;;;;;;3.45;3.10;;;6.00;71.20;;;;;;5076984;28;20209;-81
2022/02/14 02:21:46;;;;;;;4.00;3.03;;;6.00;71.60;;;;;;5076848;28;20201;-82
2022/02/14 02:24:17;;;;;;;2.58;2.47;;;6.00;71.30;;;;;;5078281;28;20205;-83
2022/02/14 02:26:46;;;;;;;2.08;1.90;;;5.90;70.90;;;;;;5080213;28;20221;-81
2022/02/14 02:29:14;;;;;;;3.53;2.50;;;6.00;70.80;;;;;;5076675;28;20250;-81
2022/02/14 02:31:41;;;;;;;3.25;2.20;;;6.00;70.80;;;;;;5076026;28;20258;-81
2022/02/14 02:34:07;;;;;;;2.95;2.55;;;6.00;71.00;;;;;;5079470;28;20210;-81
2022/02/14 02:36:46;;;;;;;2.40;2.20;;;6.00;70.80;;;;;;5081318;28;20589;-81
2022/02/14 02:39:13;;;;;;;3.45;3.15;;;6.00;70.90;;;;;;5080690;28;20567;-81
2022/02/14 02:41:40;;;;;;;2.70;2.50;;;6.00;71.00;;;;;;5080533;28;20208;-81
2022/02/14 02:44:08;;;;;;;3.33;3.00;;;6.00;70.60;;;;;;5080893;28;20697;-81
2022/02/14 02:46:34;;;;;;;4.82;4.53;;;5.90;70.90;;;;;;5089014;22;20232;-81
2022/02/14 02:49:10;;;;;;;3.33;2.60;;;5.80;70.80;;;;;;5061581;28;20225;-80
2022/02/14 02:51:38;;;;;;;3.67;3.20;;;5.80;71.00;;;;;;5075319;28;20209;-80
2022/02/14 02:54:05;;;;;;;3.33;2.97;;;5.80;70.70;;;;;;5088582;28;20208;-80
2022/02/14 02:56:32;;;;;;;1.95;1.85;;;5.80;70.80;;;;;;5073261;28;20213;-80
2022/02/14 02:58:59;;;;;;;2.85;2.53;;;5.90;71.00;;;;;;5064441;28;20194;-81
2022/02/14 03:01:27;;;;;;;2.75;2.55;;;5.70;70.70;;;;;;5056839;28;20195;-81
2022/02/14 03:03:54;;;;;;;3.38;2.72;;;5.70;70.70;;;;;;5056216;28;20194;-81
2022/02/14 03:06:21;;;;;;;3.58;2.60;;;5.60;70.80;;;;;;5067622;28;20224;-81
2022/02/14 03:08:49;;;;;;;2.25;2.05;;;5.50;70.70;;;;;;5070464;28;20221;-82
2022/02/14 03:11:16;;;;;;;2.60;2.40;;;5.40;70.80;;;;;;5064999;28;20298;-81
2022/02/14 03:13:43;;;;;;;2.85;2.65;;;5.50;71.10;;;;;;5052099;28;20194;-81
2022/02/14 03:16:09;;;;;;;3.30;2.47;;;5.50;70.80;;;;;;5058937;28;20312;-81
2022/02/14 03:18:37;;;;;;;2.78;2.20;;;5.40;71.10;;;;;;5069360;28;20188;-81
2022/02/14 03:21:04;;;;;;;2.95;2.63;;;5.40;71.00;;;;;;5070482;28;20184;-81
2022/02/14 03:23:31;;;;;;;1.65;1.50;;;5.30;70.80;;;;;;5062889;28;20198;-81
2022/02/14 03:25:58;;;;;;;2.17;1.90;;;5.30;70.40;;;;;;5054581;28;20229;-82
2022/02/14 03:28:25;;;;;;;2.75;2.63;;;5.30;70.50;;;;;;5053285;28;20225;-82
2022/02/14 03:30:51;;;;;;;2.30;2.15;;;5.30;71.00;;;;;;5055142;28;20205;-82
2022/02/14 03:33:19;;;;;;;2.80;2.50;;;5.40;70.50;;;;;;5050481;28;20194;-82
2022/02/14 03:35:48;;;;;;;2.70;2.50;;;5.30;70.50;;;;;;5055160;28;20256;-82
2022/02/14 03:38:15;;;;;;;2.47;2.20;;;5.30;70.70;;;;;;5050331;28;20198;-81
2022/02/14 03:40:43;;;;;;;3.15;2.65;;;5.30;70.40;;;;;;5052425;28;20228;-82
2022/02/14 03:43:11;;;;;;;2.40;2.20;;;5.30;70.70;;;;;;5052177;28;20208;-82
2022/02/14 03:45:39;;;;;;;2.90;2.67;;;5.30;70.70;;;;;;5049791;28;20663;-81
2022/02/14 03:48:06;;;;;;;3.30;2.55;;;5.30;70.50;;;;;;5053034;28;20216;-81
2022/02/14 03:50:33;;;;;;;2.53;2.00;;;5.20;70.50;;;;;;5048652;28;20205;-81
2022/02/14 03:53:02;;;;;;;2.72;2.53;;;5.10;70.00;;;;;;5061548;28;20205;-81
2022/02/14 03:55:28;;;;;;;2.50;2.00;;;5.20;70.00;;;;;;5060238;28;20210;-81
2022/02/14 03:57:55;;;;;;;2.85;2.60;;;5.10;69.70;;;;;;5060883;28;21033;-81
2022/02/14 04:00:24;;;;;;;1.95;1.85;;;5.20;69.40;;;;;;5060780;28;20288;-81
2022/02/14 04:02:51;;;;;;;3.03;2.20;;;5.20;69.10;;;;;;5041157;28;20206;-81
2022/02/14 04:05:19;;;;;;;2.70;2.50;;;5.20;68.60;;;;;;5045957;28;20616;-81
2022/02/14 04:07:47;;;;;;;2.10;2.00;;;5.20;68.30;;;;;;5060752;28;20225;-81
2022/02/14 04:10:16;;;;;;;5.82;2.50;;;5.20;68.40;;;;;;5060730;28;20224;-81
2022/02/14 04:12:44;;;;;;;2.63;2.42;;;5.20;68.00;;;;;;5060912;28;20206;-82
2022/02/14 04:15:12;;;;;;;2.03;1.90;;;5.20;67.60;;;;;;5060590;28;20193;-81
2022/02/14 04:17:39;;;;;;;2.45;2.05;;;5.20;67.60;;;;;;5060490;28;20253;-81
2022/02/14 04:20:07;;;;;;;2.00;1.90;;;5.20;67.80;;;;;;5059752;28;20204;-81
2022/02/14 04:22:33;;;;;;;3.38;2.50;;;5.30;67.40;;;;;;5060553;28;20210;-81
2022/02/14 04:25:00;;;;;;;2.72;2.28;;;5.30;67.30;;;;;;5060403;28;20694;-81
2022/02/14 04:27:29;;;;;;;2.10;2.00;;;5.30;67.20;;;;;;5040461;28;20292;-81
2022/02/14 04:29:56;;;;;;;2.20;2.10;;;5.40;66.90;;;;;;5040202;28;20317;-81
2022/02/14 04:32:23;;;;;;;2.90;2.70;;;5.30;67.20;;;;;;5059651;28;20197;-81
2022/02/14 04:34:50;;;;;;;2.67;2.08;;;5.40;67.10;;;;;;5060723;28;20208;-82
2022/02/14 04:37:16;;;;;;;2.47;2.28;;;5.30;66.70;;;;;;5059850;28;20222;-81
2022/02/14 04:39:43;;;;;;;2.63;2.42;;;5.40;67.10;;;;;;5055198;28;20205;-81
2022/02/14 04:42:11;;;;;;;3.17;2.13;;;5.30;67.20;;;;;;5051101;28;20212;-81
2022/02/14 04:44:39;;;;;;;3.13;2.33;;;5.30;67.30;;;;;;5051078;28;20682;-81
2022/02/14 04:47:06;;;;;;;2.53;1.90;;;5.20;67.20;;;;;;5054406;28;20320;-81
2022/02/14 04:49:32;;;;;;;4.07;2.20;;;5.20;67.00;;;;;;5049274;28;20221;-81
2022/02/14 04:51:59;;;;;;;2.88;2.30;;;5.10;66.20;;;;;;5051418;28;20209;-81
2022/02/14 04:54:26;;;;;;;3.08;2.85;;;5.10;66.40;;;;;;5050351;28;20201;-82
2022/02/14 04:56:53;;;;;;;3.53;2.90;;;5.20;66.40;;;;;;5055498;28;20214;-81
2022/02/14 04:59:20;;;;;;;3.92;3.05;;;5.20;66.20;;;;;;5065431;28;20212;-81
2022/02/14 05:01:48;;;;;;;3.28;2.97;;;5.20;66.20;;;;;;5063959;28;20194;-82
2022/02/14 05:04:15;;;;;;;2.50;2.30;;;5.30;66.00;;;;;;5056976;28;20210;-82
2022/02/14 05:06:42;;;;;;;2.80;2.05;;;5.30;65.80;;;;;;5067174;28;20222;-82
2022/02/14 05:09:08;;;;;;;3.40;2.47;;;5.30;65.70;;;;;;5051676;28;20699;-81
2022/02/14 05:11:35;;;;;;;3.92;2.72;;;5.30;65.70;;;;;;5050677;28;20194;-81
2022/02/14 05:14:02;;;;;;;2.67;2.47;;;5.30;65.50;;;;;;5049796;28;20202;-81
2022/02/14 05:16:29;;;;;;;2.53;1.75;;;5.30;65.80;;;;;;5053228;28;20288;-82
2022/02/14 05:18:58;;;;;;;2.67;2.47;;;5.30;65.50;;;;;;5048201;28;20565;-82
2022/02/14 05:21:25;;;;;;;2.72;2.00;;;5.30;65.50;;;;;;5052174;28;20199;-81
2022/02/14 05:23:52;;;;;;;2.10;1.90;;;5.30;65.50;;;;;;5048037;28;20562;-81
2022/02/14 05:26:19;;;;;;;4.45;2.72;;;5.30;66.20;;;;;;5049309;28;20272;-81
2022/02/14 05:28:46;;;;;;;2.90;2.00;;;5.20;65.80;;;;;;5048885;28;20202;-81
2022/02/14 05:31:13;;;;;;;2.38;2.15;;;5.20;66.20;;;;;;5049428;28;20209;-81
2022/02/14 05:33:39;;;;;;;2.20;2.08;;;5.20;66.30;;;;;;5059400;28;20221;-81
2022/02/14 05:36:07;;;;;;;3.67;2.30;;;5.20;66.50;;;;;;5058728;28;20217;-81
2022/02/14 05:38:34;;;;;;;3.28;3.08;;;5.20;66.50;;;;;;5058845;28;20213;-81
2022/02/14 05:41:01;;;;;;;5.25;2.88;;;5.20;66.70;;;;;;5058906;28;20249;-82
2022/02/14 05:43:28;;;;;;;3.35;3.05;;;5.10;66.80;;;;;;5058879;28;20208;-82
2022/02/14 05:45:54;;;;;;;2.97;2.40;;;5.10;67.20;;;;;;5058862;28;20603;-82
2022/02/14 05:48:26;;;;;;;2.90;2.70;;;5.10;67.30;;;;;;5059000;28;20217;-82
2022/02/14 05:50:53;;;;;;;2.83;2.63;;;5.00;67.30;;;;;;5058347;28;20581;-81
2022/02/14 05:53:21;;;;;;;4.35;2.78;;;5.00;67.70;;;;;;5059650;28;20213;-81
2022/02/14 05:55:48;;;;;;;2.28;1.85;;;5.00;67.80;;;;;;5058494;28;20202;-81
2022/02/14 05:58:14;;;;;;;3.25;2.72;;;5.00;68.00;;;;;;5058774;28;20241;-81
2022/02/14 06:00:41;;;;;;;3.40;2.95;;;4.90;68.30;;;;;;5058052;28;20194;-81
2022/02/14 06:03:08;;;;;;;2.70;2.50;;;4.90;68.50;;;;;;5060032;28;20212;-81
2022/02/14 06:05:35;;;;;;;2.45;2.25;;;4.90;69.50;;;;;;5058415;28;20227;-81
2022/02/14 06:08:02;;;;;;;7.15;3.95;;;4.90;69.80;;;;;;5057827;28;20212;-81
2022/02/14 06:10:30;;;;;;;3.42;3.22;;;4.80;69.80;;;;;;5058551;28;20218;-81
2022/02/14 06:12:57;;;;;;;2.97;2.78;;;4.90;69.80;;;;;;5058738;28;20205;-81
2022/02/14 06:15:24;;;;;;;3.85;3.47;;;4.80;69.80;;;;;;5058373;28;20216;-81
2022/02/14 06:17:52;;;;;;;3.15;2.17;;;4.80;69.90;;;;;;5059236;28;20233;-81
2022/02/14 06:20:19;;;;;;;2.85;2.10;;;4.70;69.60;;;;;;5057836;28;20205;-81
2022/02/14 06:22:45;;;;;;;4.05;3.03;;;4.80;69.60;;;;;;5057942;28;20205;-81
2022/02/14 06:25:12;;;;;;;2.88;2.15;;;4.80;69.80;;;;;;5058880;28;20205;-81
2022/02/14 06:27:40;;;;;;;2.90;1.80;;;4.80;69.80;;;;;;5058121;28;20235;-81
2022/02/14 06:30:08;;;;;;;4.40;2.20;;;4.80;70.00;;;;;;5059901;28;20614;-81
2022/02/14 06:32:36;;;;;;;2.83;2.63;;;4.80;70.60;;;;;;5058218;28;20212;-81
2022/02/14 06:35:04;;;;;;;2.17;1.98;;;4.80;70.70;;;;;;5058925;28;20232;-81
2022/02/14 06:37:31;;;;;;;3.20;2.05;;;4.90;69.70;;;;;;5058516;28;20279;-81
2022/02/14 06:39:58;;;;;;;3.58;2.97;;;4.80;69.60;;;;;;5057873;28;20216;-81
2022/02/14 06:42:24;;;;;;;2.33;2.17;;;4.80;70.00;;;;;;5059950;28;20578;-81
2022/02/14 06:44:52;;;;;;;5.03;2.40;;;4.80;70.30;;;;;;5058438;28;20267;-81
2022/02/14 06:47:19;;;;;;;7.10;3.30;;;4.80;69.90;;;;;;5056513;28;20233;-78
2022/02/14 06:49:46;;;;;;;3.20;3.00;;;4.80;70.00;;;;;;5051701;28;20225;-78
2022/02/14 06:52:13;;;;;;;2.83;2.40;;;4.90;70.50;;;;;;5051112;28;20301;-79
2022/02/14 06:54:40;;;;;;;3.13;1.85;;;5.00;70.90;;;;;;5051493;28;20216;-79
2022/02/14 06:57:06;;;;;;;2.20;1.88;;;5.00;70.90;;;;;;5051480;28;20319;-79
2022/02/14 06:59:33;;;;;;;2.10;1.95;;;5.00;70.40;;;;;;5051241;28;20211;-79
2022/02/14 07:02:01;;;;;;;3.28;2.95;;;5.00;70.40;;;;;;5051029;28;20697;-79
2022/02/14 07:04:28;;;;;;;3.90;2.83;;;5.10;70.90;;;;;;5051366;28;20201;-79
2022/02/14 07:06:55;;;;;;;2.83;2.63;;;5.20;70.80;;;;;;5050985;28;20588;-79
2022/02/14 07:09:22;;;;;;;3.00;2.80;;;5.20;70.50;;;;;;5054177;28;20222;-81
2022/02/14 07:11:48;;;;;;;5.85;3.20;;;5.20;73.90;;;;;;5057195;28;20201;-81
2022/02/14 07:14:16;;;;;;;4.07;2.63;;;5.30;72.10;;;;;;5070235;28;20234;-80
2022/02/14 07:16:43;;;;;;;4.20;3.72;;;5.30;72.10;;;;;;5064371;28;20213;-81
2022/02/14 07:19:11;;;;;;;3.90;2.50;;;5.40;71.60;;;;;;5057971;28;20734;-81
2022/02/14 07:21:38;;;;;;;6.55;5.00;;;5.40;71.10;;;;;;5061082;28;20213;-81
2022/02/14 07:24:05;;;;;;;2.70;2.50;;;5.40;71.10;;;;;;5053038;28;20206;-80
2022/02/14 07:26:32;;;;;;;4.25;3.00;;;5.30;71.10;;;;;;5047151;28;20639;-81
2022/02/14 07:28:59;;;;;;;2.58;2.45;;;5.20;71.50;;;;;;5052940;28;20201;-81
2022/02/14 07:31:26;;;;;;;7.20;6.20;;;5.20;72.50;;;;;;5043430;28;20218;-82
2022/02/14 07:33:53;;;;;;;3.00;2.70;;;5.20;71.50;;;;;;5052738;28;20201;-81
2022/02/14 07:36:21;;;;;;;5.30;2.60;;;5.20;71.30;;;;;;5050920;28;20237;-81
2022/02/14 07:38:48;;;;;;;6.88;3.00;;;5.20;71.20;;;;;;5047446;28;20676;-81
2022/02/14 07:41:14;;;;;;;4.78;2.22;;;5.30;71.10;;;;;;5049188;28;20200;-81
2022/02/14 07:43:41;;;;;;;3.70;3.30;;;5.40;71.40;;;;;;5060658;28;20212;-81
2022/02/14 07:46:08;;;;;;;3.55;2.80;;;5.40;72.20;;;;;;5060917;28;20244;-81
2022/02/14 07:48:34;;;;;;;3.95;3.25;;;5.60;72.70;;;;;;5059701;28;20679;-81
2022/02/14 07:51:01;;;;;;;3.97;3.65;;;5.70;72.30;;;;;;5049239;28;20233;-81
2022/02/14 07:53:30;;;;;;;3.47;3.15;;;5.80;72.10;;;;;;5047357;28;20198;-81
2022/02/14 07:55:57;;;;;;;4.47;3.28;;;5.80;72.50;;;;;;5047918;28;20214;-81
2022/02/14 07:58:23;;;;;;;4.10;2.40;;;5.90;71.80;;;;;;5049693;28;20205;-82
2022/02/14 08:00:50;;;;;;;2.60;2.40;;;6.00;71.50;;;;;;5059122;28;20301;-81
2022/02/14 08:03:21;;;;;;;6.78;3.08;;;6.00;71.80;;;;;;5057588;28;20212;-82
2022/02/14 08:05:47;;;;;;;3.65;2.67;;;6.10;71.70;;;;;;5070052;28;20197;-81
2022/02/14 08:08:14;;;;;;;5.22;2.85;;;6.20;71.20;;;;;;5052993;28;20198;-80
2022/02/14 08:10:42;;;;;;;2.92;2.72;;;6.30;71.10;;;;;;5049696;28;20222;-82
2022/02/14 08:13:09;;;;;;;5.50;3.33;;;6.40;71.00;;;;;;5071086;28;20274;-79
2022/02/14 08:15:36;;;;;;;4.70;3.90;;;6.50;70.60;;;;;;5071666;28;20190;-82
2022/02/14 08:18:07;;;;;;;3.55;3.25;;;6.50;70.20;;;;;;5065048;28;20209;-82
2022/02/14 08:20:35;;;;;;;3.50;3.30;;;6.60;70.20;;;;;;5058258;28;20682;-81
2022/02/14 08:23:03;;;;;;;3.35;3.03;;;6.70;70.20;;;;;;5047404;28;20293;-81
2022/02/14 08:25:30;;;;;;;4.40;2.85;;;6.80;70.20;;;;;;5057825;28;20202;-81
2022/02/14 08:27:58;;;;;;;7.90;3.15;;;6.90;69.60;;;;;;5268095;22;20254;-82
2022/02/14 08:30:25;;;;;;;7.30;4.28;;;7.10;69.60;;;;;;5106567;28;20236;-82
2022/02/14 08:32:52;;;;;;;2.20;2.03;;;7.10;69.30;;;;;;5095213;28;20196;-83
2022/02/14 08:35:19;;;;;;;2.80;2.60;;;7.20;69.80;;;;;;5098161;28;20208;-81
2022/02/14 08:37:46;;;;;;;5.05;2.97;;;7.40;72.00;;;;;;5092247;28;20217;-82
2022/02/14 08:40:14;;;;;;;4.53;3.47;;;7.50;70.20;;;;;;5090273;28;20556;-78
2022/02/14 08:42:41;;;;;;;6.15;2.80;;;7.60;70.50;;;;;;5092525;28;20198;-78
2022/02/14 08:45:13;;;;;;;5.10;3.08;;;7.70;70.20;;;;;;5076930;28;20633;-83
2022/02/14 08:47:40;;;;;;;3.47;2.42;;;8.00;70.30;;;;;;5094059;28;20254;-80
2022/02/14 08:50:10;;;;;;;5.70;2.70;;;8.10;69.40;;;;;;5110530;28;20224;-81
2022/02/14 08:52:37;;;;;;;3.58;2.80;;;8.30;68.80;;;;;;5088323;28;20208;-82
2022/02/14 08:55:04;;;;;;;2.70;2.50;;;8.40;68.30;;;;;;5076954;28;20201;-81
2022/02/14 08:57:31;;;;;;;3.03;2.50;;;8.50;68.80;;;;;;5095442;22;20233;-83
2022/02/14 08:59:58;;;;;;;3.92;2.88;;;8.60;68.80;;;;;;5087339;28;20201;-83
2022/02/14 09:02:26;;;;;;;4.35;4.05;;;8.70;68.70;;;;;;5075654;28;20210;-83
2022/02/14 09:04:53;;;;;;;5.05;2.60;;;8.80;68.90;;;;;;5067801;28;20202;-84
2022/02/14 09:07:20;;;;;;;3.95;3.03;;;9.00;67.90;;;;;;5077990;28;20697;-84
2022/02/14 09:09:46;;;;;;;2.67;2.45;;;9.00;67.70;;;;;;5084233;28;20211;-83
2022/02/14 09:12:17;;;;;;;3.17;2.75;;;9.10;67.90;;;;;;5074530;28;20210;-86
2022/02/14 09:14:44;;;;;;;3.03;2.10;;;9.30;67.80;;;;;;5062837;28;20673;-84
2022/02/14 09:17:11;;;;;;;2.90;2.23;;;9.50;68.20;;;;;;5056251;28;20237;-82
2022/02/14 09:19:39;;;;;;;6.50;3.08;;;9.60;66.50;;;;;;5055013;28;20465;-82
2022/02/14 09:22:06;;;;;;;3.40;2.93;;;9.80;66.70;;;;;;5068584;28;20226;-82
2022/02/14 09:24:33;;;;;;;6.83;2.90;;;10.10;66.20;;;;;;5074164;28;20456;-82
2022/02/14 09:26:59;;;;;;;3.00;2.20;;;10.30;65.40;;;;;;5074121;28;20454;-82
2022/02/14 09:29:26;;;;;;;2.87;2.40;;;10.50;65.60;;;;;;5074100;28;20840;-82
2022/02/14 09:31:54;;;;;;;7.97;3.90;;;10.70;64.80;;;;;;5058112;28;20489;-84
2022/02/14 09:34:21;;;;;;;3.90;2.30;;;10.70;63.90;;;;;;5053608;28;20491;-84
2022/02/14 09:36:53;;;;;;;2.43;2.23;;;10.70;63.30;;;;;;5056445;28;20458;-83
2022/02/14 09:39:20;;;;;;;4.53;2.57;;;10.90;63.80;;;;;;5054909;28;20458;-82
2022/02/14 09:41:47;;;;;;;4.40;4.10;;;10.90;63.40;;;;;;5066493;28;20451;-82
2022/02/14 09:44:14;;;;;;;2.43;1.97;;;11.10;64.00;;;;;;5073908;28;20509;-82
2022/02/14 09:46:42;;;;;;;6.03;2.47;;;11.20;63.50;;;;;;5061428;28;20448;-83
2022/02/14 09:49:10;;;;;;;2.10;1.90;;;11.30;63.40;;;;;;5054887;28;20499;-83
2022/02/14 09:51:37;;;;;;;4.67;2.50;;;11.40;63.00;;;;;;5055296;28;20484;-85
2022/02/14 09:54:07;;;;;;;6.10;2.60;;;11.40;63.00;;;;;;5054512;28;20945;-84
2022/02/14 09:56:36;;;;;;;4.20;3.00;;;11.50;63.60;;;;;;5054658;28;20456;-84
2022/02/14 09:59:04;;;;;;;3.33;3.00;;;11.50;63.90;;;;;;5053875;28;20484;-82
2022/02/14 10:01:32;;;;;;;5.30;2.53;;;11.50;64.50;;;;;;5054504;28;20963;-82
2022/02/14 10:04:01;;;;;;;3.97;2.20;;;11.60;64.90;;;;;;5054220;28;20451;-82
2022/02/14 10:06:29;;;;;;;5.47;2.83;;;11.60;65.20;;;;;;5067639;28;20504;-83
2022/02/14 10:09:08;;;;;;;4.47;2.77;;;11.60;65.30;;;;;;5074482;28;21121;-84
2022/02/14 10:11:36;;;;;;;3.97;2.33;;;11.70;66.90;;;;;;5059927;28;20483;-83
2022/02/14 10:14:18;;;;;;;3.83;3.43;;;11.70;66.40;;;;;;5053724;28;20459;-83
2022/02/14 10:17:05;;;;;;;4.17;2.80;;;11.70;66.70;;;;;;5054154;28;20799;-83
2022/02/14 10:19:34;;;;;;;3.50;2.97;;;11.80;66.90;;;;;;5054898;28;20447;-84
2022/02/14 10:22:02;;;;;;;5.00;2.87;;;12.00;67.50;;;;;;5054289;28;20455;-84
2022/02/14 10:24:41;;;;;;;5.70;2.10;;;12.10;67.60;;;;;;5053960;28;20459;-84
2022/02/14 10:27:57;;;;;;;2.47;1.93;;;12.20;67.30;;;;;;5053417;28;20843;-84
2022/02/14 10:30:32;;;;;;;5.27;2.00;;;12.40;67.80;;;;;;4993514;28;20573;-83
2022/02/14 10:32:59;;;;;;;2.30;2.00;;;12.40;67.10;;;;;;5062849;28;20544;-84
2022/02/14 10:35:27;;;;;;;2.93;1.87;;;12.40;69.10;;;;;;5064876;28;20448;-83
2022/02/14 10:37:53;;;;;;;2.60;2.17;;;12.30;70.10;;;;;;5054549;28;20474;-83
2022/02/14 10:40:30;;;;;;;3.90;2.30;;;12.40;70.50;;;;;;5053427;28;20451;-84
2022/02/14 10:43:00;;;;;;;2.40;2.20;;;12.50;70.60;;;;;;5034643;28;20437;-84
2022/02/14 10:45:28;;;;;;;2.33;1.60;;;12.60;70.30;;;;;;5042752;28;20444;-83
2022/02/14 10:47:56;;;;;;;3.40;2.60;;;12.60;70.70;;;;;;5053737;28;20484;-82
2022/02/14 10:50:26;;;;;;;5.57;2.50;;;12.60;71.60;;;;;;5063403;28;21037;-83
2022/02/14 10:52:56;;;;;;;4.20;3.90;;;12.60;71.70;;;;;;5075195;28;20497;-83
2022/02/14 10:55:26;;;;;;;2.60;2.00;;;12.70;71.70;;;;;;5078154;28;20472;-82
2022/02/14 10:57:56;;;;;;;4.07;2.13;;;12.70;71.60;;;;;;5077804;28;21029;-83
2022/02/14 11:00:24;;;;;;;2.90;2.57;;;12.90;71.70;;;;;;5077997;28;20959;-83
2022/02/14 11:02:56;;;;;;;4.50;2.17;;;13.00;70.90;;;;;;5067274;28;20455;-84
2022/02/14 11:05:23;;;;;;;2.00;1.80;;;13.00;71.10;;;;;;5078484;28;20451;-83
2022/02/14 11:07:50;;;;;;;3.07;2.50;;;13.00;71.60;;;;;;5064249;28;20478;-82
2022/02/14 11:10:18;;;;;;;2.70;2.23;;;13.00;70.90;;;;;;5058313;28;20457;-84
2022/02/14 11:12:50;;;;;;;3.33;2.20;;;13.10;71.40;;;;;;5068767;28;20451;-84
2022/02/14 11:15:19;;;;;;;1.60;1.50;;;13.00;71.80;;;;;;5077949;28;20455;-83
2022/02/14 11:17:50;;;;;;;2.20;2.00;;;13.10;73.00;;;;;;5076589;28;20467;-83
2022/02/14 11:20:50;;;;;;;2.97;2.77;;;13.10;73.70;;;;;;5078014;28;20881;-85
2022/02/14 11:23:19;;;;;;;3.13;1.73;;;13.10;74.20;;;;;;5060523;28;20459;-82
2022/02/14 11:25:55;;;;;;;2.13;1.77;;;13.20;73.70;;;;;;5057673;28;20448;-81
2022/02/14 11:28:28;;;;;;;6.30;2.80;;;13.00;73.90;;;;;;5073882;28;20851;-82
2022/02/14 11:31:10;;;;;;;2.67;1.10;;;12.90;75.30;;;;;;5065242;28;20479;-82
2022/02/14 11:33:37;;;;;;;2.57;1.90;;;12.60;76.20;;;;;;5077427;28;20450;-82
2022/02/14 11:36:06;;;;;;;3.77;2.07;;;12.50;77.30;;;;;;5077081;28;20490;-82
2022/02/14 11:38:52;;;;;;;4.00;2.63;;;12.50;77.40;;;;;;5077196;28;20558;-82
2022/02/14 11:41:31;;;;;;;1.97;1.87;;;12.70;77.30;;;;;;5076491;28;20443;-82
2022/02/14 11:44:20;;;;;;;3.00;2.27;;;12.60;77.50;;;;;;5076918;28;20477;-82
2022/02/14 11:47:07;;;;;;;1.80;1.70;;;12.80;77.40;;;;;;5077438;28;20550;-81
2022/02/14 11:49:36;;;;;;;2.90;2.03;;;12.90;76.70;;;;;;5077314;28;20450;-82
2022/02/14 11:52:05;;;;;;;3.20;1.30;;;12.80;76.00;;;;;;5076430;28;20479;-81
2022/02/14 11:54:35;;;;;;;2.57;1.60;;;12.60;76.70;;;;;;5076688;28;20470;-82
2022/02/14 11:57:26;;;;;;;4.37;2.13;;;12.60;77.30;;;;;;5076416;28;20484;-82
2022/02/14 11:59:53;;;;;;;2.00;1.60;;;12.70;77.50;;;;;;5076873;28;20465;-82
2022/02/14 12:02:30;;;;;;;3.20;1.77;;;12.80;77.20;;;;;;5076575;28;20447;-81
2022/02/14 12:04:57;;;;;;;1.63;1.53;;;12.80;77.80;;;;;;5076820;28;20951;-81
2022/02/14 12:07:33;;;;;;;2.83;1.70;;;12.80;78.10;;;;;;5075200;28;20474;-82
2022/02/14 12:10:22;;;;;;;15.50;2.70;;;13.00;77.80;;;;;;5076599;28;20451;-81
2022/02/14 12:13:08;;;;;;;2.50;1.80;;;13.10;77.80;;;;;;5065699;28;20552;-82
2022/02/14 12:21:18;;;;;;;2.60;1.57;;;13.40;76.50;;;;;;5076067;28;20847;-82
2022/02/14 12:23:47;;;;;;;1.97;1.70;;;13.50;77.20;;;;;;5076248;28;20447;-82
2022/02/14 12:26:16;;;;;;;2.17;1.50;;;13.60;77.50;;;;;;5076583;28;20454;-82
2022/02/14 12:28:44;;;;;;;1.90;1.43;;;13.20;77.80;;;;;;5076107;28;20473;-83
2022/02/14 12:31:12;;;;;;;3.40;1.60;;;13.00;78.90;;;;;;5075785;28;20497;-81
2022/02/14 12:33:41;;;;;;;3.70;1.70;;;12.90;79.80;;;;;;5076192;28;20840;-81
2022/02/14 12:36:09;;;;;;;2.80;2.60;;;12.70;80.50;;;;;;5075934;28;20447;-83
2022/02/14 12:38:38;;;;;;;2.30;1.70;;;12.60;82.10;;;;;;5075391;28;20460;-81
2022/02/14 12:41:07;;;;;;;1.40;1.30;;;12.60;81.80;;;;;;5075644;28;20446;-81
2022/02/14 12:43:37;;;;;;;3.13;1.70;;;12.70;81.90;;;;;;5075757;28;20453;-81
2022/02/14 12:46:05;;;;;;;2.20;1.87;;;12.90;82.00;;;;;;5075855;28;20455;-81
2022/02/14 12:48:34;;;;;;;1.73;1.60;;;13.10;81.30;;;;;;5075715;28;20994;-81
2022/02/14 12:51:03;;;;;;;1.60;1.50;;;13.30;81.20;;;;;;5075711;28;20505;-81
2022/02/14 12:53:30;;;;;;;1.57;1.27;;;13.50;80.90;;;;;;5075820;28;20447;-81
2022/02/14 12:56:12;;;;;;;1.83;1.70;;;13.50;79.50;;;;;;5075868;28;20445;-81
2022/02/14 12:58:50;;;;;;;5.60;1.70;;;13.40;79.70;;;;;;5075355;28;20478;-80
2022/02/14 13:01:17;;;;;;;2.17;1.90;;;13.10;80.00;;;;;;5075036;28;20481;-83
2022/02/14 13:03:56;;;;;;;2.03;1.87;;;12.90;81.00;;;;;;5075594;28;20435;-81
2022/02/14 13:06:37;;;;;;;1.60;1.50;;;12.90;82.00;;;;;;5075138;28;20447;-81
2022/02/14 13:09:04;;;;;;;1.80;1.70;;;12.70;81.20;;;;;;5074936;28;20565;-81
2022/02/14 13:11:40;;;;;;;1.77;1.37;;;12.70;82.00;;;;;;5075071;28;20490;-81